createdAt,value
2022-09-15T00:00:33.012Z,98775.61
2022-09-15T00:01:35.730Z,98779.30
2022-09-15T00:02:40.185Z,98778.48
2022-09-15T00:03:43.303Z,98781.09
2022-09-15T00:04:45.784Z,98776.81
2022-09-15T00:05:48.697Z,98779.16
2022-09-15T00:06:50.790Z,98767.76
2022-09-15T00:07:52.650Z,98776.33
2022-09-15T00:08:55.184Z,98775.34
2022-09-15T00:09:56.985Z,98775.34
2022-09-15T00:11:08.532Z,98772.03
2022-09-15T00:12:10.607Z,98775.13
2022-09-15T00:13:12.635Z,98772.48
2022-09-15T00:14:14.686Z,98770.58
2022-09-15T00:15:16.614Z,98780.42
2022-09-15T00:16:23.118Z,98778.61
2022-09-15T00:17:26.029Z,98772.89
2022-09-15T00:18:28.192Z,98775.35
2022-09-15T00:19:30.015Z,98774.74
2022-09-15T00:20:32.731Z,98778.55
2022-09-15T00:21:37.957Z,98774.70
2022-09-15T00:22:40.124Z,98778.38
2022-09-15T00:23:42.536Z,98775.65
2022-09-15T00:24:44.566Z,98774.92
2022-09-15T00:25:50.069Z,98772.72
2022-09-15T00:26:52.710Z,98770.11
2022-09-15T00:27:54.532Z,98764.77
2022-09-15T00:28:57.672Z,98766.67
2022-09-15T00:29:59.968Z,98767.21
2022-09-15T00:31:05.556Z,98766.27
2022-09-15T00:32:07.722Z,98757.50
2022-09-15T00:33:10.850Z,98755.21
2022-09-15T00:34:13.213Z,98752.72
2022-09-15T00:35:15.351Z,98754.43
2022-09-15T00:36:20.188Z,98758.09
2022-09-15T00:37:22.227Z,98760.71
2022-09-15T00:38:24.049Z,98764.70
2022-09-15T00:39:25.862Z,98767.81
2022-09-15T00:40:29.569Z,98765.73
2022-09-15T00:41:32.293Z,98763.64
2022-09-15T00:42:34.215Z,98765.95
2022-09-15T00:43:51.842Z,98767.25
2022-09-15T00:44:57.579Z,98767.25
2022-09-15T00:45:59.631Z,98762.23
2022-09-15T00:47:18.643Z,98765.14
2022-09-15T00:48:12.010Z,98767.19
2022-09-15T00:49:24.832Z,98762.59
2022-09-15T00:50:27.288Z,98762.14
2022-09-15T00:51:35.442Z,98763.81
2022-09-15T00:52:41.052Z,98761.65
2022-09-15T00:53:45.602Z,98758.09
2022-09-15T00:55:01.163Z,98770.95
2022-09-15T00:56:06.658Z,98766.72
2022-09-15T00:57:21.377Z,98765.05
2022-09-15T00:58:26.991Z,98764.05
2022-09-15T00:59:32.133Z,98763.27
2022-09-15T01:00:34.784Z,98757.63
2022-09-15T01:01:38.634Z,98767.25
2022-09-15T01:02:43.107Z,98761.09
2022-09-15T01:03:45.295Z,98764.11
2022-09-15T01:04:48.799Z,98756.81
2022-09-15T01:05:54.891Z,98765.64
2022-09-15T01:07:00.704Z,98757.98
2022-09-15T01:08:09.803Z,98758.15
2022-09-15T01:09:18.417Z,98755.83
2022-09-15T01:10:26.781Z,98762.43
2022-09-15T01:11:29.788Z,98758.72
2022-09-15T01:12:32.674Z,98757.98
2022-09-15T01:13:34.929Z,98755.86
2022-09-15T01:14:36.864Z,98759.33
2022-09-15T01:15:48.699Z,98760.27
2022-09-15T01:17:15.751Z,98752.99
2022-09-15T01:18:36.759Z,98752.88
2022-09-15T01:19:59.356Z,98758.30
2022-09-15T01:21:29.368Z,98755.52
2022-09-15T01:23:06.546Z,98754.84
2022-09-15T01:24:47.180Z,98749.82
2022-09-15T01:27:42.401Z,98746.25
2022-09-15T01:29:02.203Z,98746.00
2022-09-15T01:31:40.933Z,98740.53
2022-09-15T01:32:52.916Z,98735.33
2022-09-15T01:33:58.500Z,98733.45
2022-09-15T01:35:19.355Z,98739.80
2022-09-15T01:37:51.400Z,98730.91
2022-09-15T01:39:09.845Z,98726.56
2022-09-15T01:40:14.927Z,98729.17
2022-09-15T01:41:20.318Z,98725.92
2022-09-15T01:42:24.900Z,98723.58
2022-09-15T01:43:29.405Z,98721.49
2022-09-15T01:44:43.856Z,98722.75
2022-09-15T01:45:48.477Z,98725.74
2022-09-15T01:46:58.139Z,98728.18
2022-09-15T01:48:03.532Z,98729.03
2022-09-15T01:49:09.122Z,98713.37
2022-09-15T01:50:14.941Z,98716.27
2022-09-15T01:51:17.735Z,98720.31
2022-09-15T01:52:23.356Z,98722.48
2022-09-15T01:53:26.932Z,98724.89
2022-09-15T01:54:35.938Z,98719.38
2022-09-15T01:55:44.506Z,98723.38
2022-09-15T01:56:47.073Z,98717.50
2022-09-15T01:57:49.067Z,98719.14
2022-09-15T01:58:51.184Z,98716.36
2022-09-15T01:59:55.429Z,98716.97
2022-09-15T02:01:10.007Z,98713.91
2022-09-15T02:02:15.909Z,98717.05
2022-09-15T02:03:28.206Z,98703.27
2022-09-15T02:04:43.295Z,98703.71
2022-09-15T02:05:51.671Z,98708.70
2022-09-15T02:07:12.875Z,98708.48
2022-09-15T02:08:22.006Z,98703.75
2022-09-15T02:09:27.604Z,98700.48
2022-09-15T02:10:33.494Z,98704.44
2022-09-15T02:11:38.508Z,98702.52
2022-09-15T02:12:59.465Z,98700.97
2022-09-15T02:14:07.906Z,98702.16
2022-09-15T02:15:13.548Z,98702.85
2022-09-15T02:16:20.219Z,98697.38
2022-09-15T02:17:25.520Z,98704.48
2022-09-15T02:18:31.141Z,98709.26
2022-09-15T02:19:39.407Z,98700.70
2022-09-15T02:20:47.957Z,98710.08
2022-09-15T02:22:13.751Z,98699.30
2022-09-15T02:23:31.645Z,98705.25
2022-09-15T02:24:40.344Z,98704.77
2022-09-15T02:25:52.083Z,98701.30
2022-09-15T02:26:54.367Z,98704.64
2022-09-15T02:27:59.895Z,98699.91
2022-09-15T02:29:05.552Z,98703.83
2022-09-15T02:30:11.404Z,98706.08
2022-09-15T02:31:16.543Z,98704.20
2022-09-15T02:32:22.195Z,98710.23
2022-09-15T02:33:27.788Z,98705.70
2022-09-15T02:34:33.103Z,98712.32
2022-09-15T02:35:38.902Z,98703.09
2022-09-15T02:36:42.809Z,98706.98
2022-09-15T02:37:45.925Z,98707.59
2022-09-15T02:38:53.933Z,98700.25
2022-09-15T02:39:58.435Z,98698.00
2022-09-15T02:41:01.738Z,98698.08
2022-09-15T02:42:04.660Z,98697.03
2022-09-15T02:43:12.927Z,98694.09
2022-09-15T02:44:15.083Z,98695.92
2022-09-15T02:45:17.331Z,98697.14
2022-09-15T02:46:21.977Z,98689.59
2022-09-15T02:47:25.767Z,98690.80
2022-09-15T02:48:28.118Z,98697.42
2022-09-15T02:49:30.378Z,98699.21
2022-09-15T02:50:33.163Z,98687.70
2022-09-15T02:51:35.172Z,98701.03
2022-09-15T02:52:37.189Z,98695.39
2022-09-15T02:53:39.165Z,98690.52
2022-09-15T02:54:41.449Z,98695.75
2022-09-15T02:55:43.126Z,98696.47
2022-09-15T02:56:45.557Z,98690.06
2022-09-15T02:57:47.802Z,98695.14
2022-09-15T02:58:49.695Z,98704.07
2022-09-15T02:59:51.449Z,98696.69
2022-09-15T03:00:53.496Z,98695.02
2022-09-15T03:01:56.025Z,98701.91
2022-09-15T03:02:58.229Z,98695.02
2022-09-15T03:04:02.899Z,98693.59
2022-09-15T03:05:06.760Z,98701.55
2022-09-15T03:06:11.133Z,98692.86
2022-09-15T03:07:13.546Z,98693.10
2022-09-15T03:08:15.884Z,98697.10
2022-09-15T03:09:17.780Z,98690.70
2022-09-15T03:10:22.307Z,98694.70
2022-09-15T03:11:26.310Z,98681.31
2022-09-15T03:12:28.789Z,98685.02
2022-09-15T03:13:30.678Z,98691.03
2022-09-15T03:14:32.726Z,98685.72
2022-09-15T03:15:34.833Z,98685.72
2022-09-15T03:16:36.951Z,98683.92
2022-09-15T03:17:41.219Z,98684.50
2022-09-15T03:18:45.326Z,98678.42
2022-09-15T03:19:47.326Z,98683.64
2022-09-15T03:20:49.362Z,98684.05
2022-09-15T03:21:51.529Z,98682.83
2022-09-15T03:22:54.242Z,98687.39
2022-09-15T03:23:57.829Z,98678.83
2022-09-15T03:25:00.087Z,98679.27
2022-09-15T03:26:03.262Z,98680.21
2022-09-15T03:27:05.842Z,98680.83
2022-09-15T03:28:07.618Z,98679.64
2022-09-15T03:29:09.447Z,98668.53
2022-09-15T03:30:13.524Z,98674.36
2022-09-15T03:31:16.359Z,98667.27
2022-09-15T03:32:18.894Z,98661.91
2022-09-15T03:33:21.884Z,98666.80
2022-09-15T03:34:23.981Z,98664.67
2022-09-15T03:35:25.886Z,98660.81
2022-09-15T03:36:28.436Z,98661.34
2022-09-15T03:37:30.462Z,98661.58
2022-09-15T03:38:32.537Z,98661.85
2022-09-15T03:39:34.453Z,98659.50
2022-09-15T03:40:36.690Z,98652.87
2022-09-15T03:41:38.737Z,98640.75
2022-09-15T03:42:40.627Z,98649.39
2022-09-15T03:43:45.372Z,98640.95
2022-09-15T03:44:48.559Z,98642.11
2022-09-15T03:45:50.671Z,98636.16
2022-09-15T03:46:52.840Z,98639.84
2022-09-15T03:47:54.578Z,98641.14
2022-09-15T03:48:56.437Z,98641.02
2022-09-15T03:49:58.161Z,98633.40
2022-09-15T03:51:00.976Z,98633.80
2022-09-15T03:52:03.133Z,98633.80
2022-09-15T03:53:05.509Z,98637.52
2022-09-15T03:54:07.723Z,98634.69
2022-09-15T03:55:11.617Z,98640.22
2022-09-15T03:56:26.771Z,98635.39
2022-09-15T03:57:28.719Z,98633.62
2022-09-15T03:58:31.038Z,98643.13
2022-09-15T03:59:34.117Z,98645.45
2022-09-15T04:00:36.848Z,98645.77
2022-09-15T04:01:40.268Z,98646.80
2022-09-15T04:02:42.493Z,98641.36
2022-09-15T04:03:50.139Z,98638.87
2022-09-15T04:04:50.218Z,98643.75
2022-09-15T04:05:52.240Z,98637.34
2022-09-15T04:06:54.209Z,98638.02
2022-09-15T04:07:55.988Z,98631.97
2022-09-15T04:08:58.526Z,98636.86
2022-09-15T04:10:00.440Z,98629.27
2022-09-15T04:11:07.560Z,98630.23
2022-09-15T04:12:09.410Z,98633.31
2022-09-15T04:13:11.238Z,98634.10
2022-09-15T04:14:13.018Z,98641.69
2022-09-15T04:15:14.835Z,98641.69
2022-09-15T04:16:19.617Z,98649.16
2022-09-15T04:17:21.731Z,98645.61
2022-09-15T04:18:23.664Z,98651.86
2022-09-15T04:19:25.749Z,98648.70
2022-09-15T04:20:27.968Z,98651.20
2022-09-15T04:21:30.465Z,98648.46
2022-09-15T04:22:33.223Z,98646.37
2022-09-15T04:23:36.686Z,98653.81
2022-09-15T04:24:38.761Z,98653.47
2022-09-15T04:25:40.748Z,98643.63
2022-09-15T04:26:44.355Z,98640.17
2022-09-15T04:27:46.407Z,98640.77
2022-09-15T04:28:48.295Z,98644.12
2022-09-15T04:29:52.263Z,98644.12
2022-09-15T04:30:58.667Z,98635.34
2022-09-15T04:32:01.278Z,98639.31
2022-09-15T04:33:04.166Z,98637.66
2022-09-15T04:34:06.147Z,98638.85
2022-09-15T04:35:08.793Z,98649.17
2022-09-15T04:36:17.056Z,98650.27
2022-09-15T04:37:19.123Z,98645.98
2022-09-15T04:38:21.398Z,98659.63
2022-09-15T04:39:23.314Z,98646.92
2022-09-15T04:40:26.740Z,98652.66
2022-09-15T04:41:28.917Z,98650.30
2022-09-15T04:42:30.751Z,98660.03
2022-09-15T04:43:33.608Z,98661.92
2022-09-15T04:44:35.706Z,98657.42
2022-09-15T04:45:37.620Z,98657.90
2022-09-15T04:46:40.413Z,98657.08
2022-09-15T04:47:42.570Z,98653.52
2022-09-15T04:48:45.709Z,98658.50
2022-09-15T04:49:47.651Z,98658.75
2022-09-15T04:50:51.179Z,98660.29
2022-09-15T04:51:54.152Z,98658.40
2022-09-15T04:52:56.900Z,98655.44
2022-09-15T04:53:58.821Z,98648.41
2022-09-15T04:55:00.702Z,98649.02
2022-09-15T04:56:09.072Z,98641.77
2022-09-15T04:57:11.202Z,98638.08
2022-09-15T04:58:13.299Z,98631.18
2022-09-15T04:59:17.839Z,98628.09
2022-09-15T05:00:20.477Z,98622.77
2022-09-15T05:01:29.163Z,98608.70
2022-09-15T05:02:33.170Z,98607.17
2022-09-15T05:03:36.757Z,98607.89
2022-09-15T05:04:38.754Z,98615.38
2022-09-15T05:05:41.835Z,98622.02
2022-09-15T05:06:43.987Z,98621.31
2022-09-15T05:07:48.397Z,98616.09
2022-09-15T05:08:52.773Z,98612.52
2022-09-15T05:09:55.022Z,98611.58
2022-09-15T05:11:02.325Z,98610.50
2022-09-15T05:12:05.063Z,98612.98
2022-09-15T05:13:07.261Z,98621.09
2022-09-15T05:14:10.288Z,98614.42
2022-09-15T05:15:12.620Z,98624.53
2022-09-15T05:16:18.402Z,98624.88
2022-09-15T05:17:23.999Z,98623.59
2022-09-15T05:18:24.636Z,98619.55
2022-09-15T05:19:27.723Z,98617.27
2022-09-15T05:20:30.059Z,98615.61
2022-09-15T05:21:32.609Z,98612.77
2022-09-15T05:22:39.518Z,98620.35
2022-09-15T05:23:40.148Z,98618.09
2022-09-15T05:24:42.026Z,98613.45
2022-09-15T05:25:45.765Z,98614.41
2022-09-15T05:26:48.003Z,98617.25
2022-09-15T05:27:50.539Z,98608.09
2022-09-15T05:28:55.316Z,98606.80
2022-09-15T05:30:23.490Z,98608.69
2022-09-15T05:31:01.777Z,98601.56
2022-09-15T05:32:04.018Z,98592.27
2022-09-15T05:33:06.108Z,98592.27
2022-09-15T05:34:08.923Z,98604.14
2022-09-15T05:35:10.894Z,98606.86
2022-09-15T05:36:14.747Z,98603.88
2022-09-15T05:37:16.950Z,98608.39
2022-09-15T05:38:18.915Z,98606.48
2022-09-15T05:39:20.802Z,98609.14
2022-09-15T05:40:23.128Z,98606.98
2022-09-15T05:41:27.354Z,98601.26
2022-09-15T05:42:30.337Z,98592.45
2022-09-15T05:43:33.870Z,98591.87
2022-09-15T05:44:36.398Z,98597.92
2022-09-15T05:45:38.387Z,98591.50
2022-09-15T05:46:40.394Z,98593.98
2022-09-15T05:47:42.437Z,98599.70
2022-09-15T05:48:46.146Z,98599.47
2022-09-15T05:49:49.218Z,98602.91
2022-09-15T05:50:53.185Z,98605.30
2022-09-15T05:51:55.954Z,98606.96
2022-09-15T05:52:58.467Z,98604.21
2022-09-15T05:54:01.941Z,98601.72
2022-09-15T05:55:04.476Z,98591.03
2022-09-15T05:56:12.760Z,98591.03
2022-09-15T05:57:14.749Z,98602.78
2022-09-15T05:58:16.542Z,98596.72
2022-09-15T05:59:18.496Z,98602.45
2022-09-15T06:00:22.673Z,98604.13
2022-09-15T06:01:27.751Z,98601.64
2022-09-15T06:02:29.811Z,98605.80
2022-09-15T06:03:32.434Z,98606.48
2022-09-15T06:04:34.458Z,98598.89
2022-09-15T06:05:36.464Z,98598.89
2022-09-15T06:06:38.383Z,98599.55
2022-09-15T06:07:40.676Z,98604.29
2022-09-15T06:08:47.802Z,98605.61
2022-09-15T06:09:49.257Z,98600.95
2022-09-15T06:10:51.374Z,98603.70
2022-09-15T06:11:53.670Z,98607.28
2022-09-15T06:12:55.563Z,98612.52
2022-09-15T06:14:02.062Z,98613.09
2022-09-15T06:15:05.168Z,98614.05
2022-09-15T06:16:13.565Z,98612.20
2022-09-15T06:17:17.528Z,98618.16
2022-09-15T06:18:19.473Z,98617.09
2022-09-15T06:19:21.690Z,98619.83
2022-09-15T06:20:23.974Z,98612.66
2022-09-15T06:21:28.501Z,98613.14
2022-09-15T06:22:30.469Z,98611.34
2022-09-15T06:23:32.588Z,98616.59
2022-09-15T06:24:34.407Z,98613.25
2022-09-15T06:25:36.259Z,98615.84
2022-09-15T06:26:38.258Z,98615.84
2022-09-15T06:27:41.214Z,98619.73
2022-09-15T06:28:56.853Z,98627.80
2022-09-15T06:30:00.171Z,98621.22
2022-09-15T06:31:02.602Z,98621.00
2022-09-15T06:32:04.741Z,98623.40
2022-09-15T06:33:06.920Z,98631.35
2022-09-15T06:34:10.171Z,98629.35
2022-09-15T06:35:12.009Z,98627.55
2022-09-15T06:36:16.638Z,98627.91
2022-09-15T06:37:19.116Z,98626.47
2022-09-15T06:38:21.336Z,98621.81
2022-09-15T06:39:23.126Z,98620.73
2022-09-15T06:40:25.870Z,98616.22
2022-09-15T06:41:38.217Z,98613.09
2022-09-15T06:42:33.273Z,98609.53
2022-09-15T06:43:38.034Z,98612.86
2022-09-15T06:44:40.151Z,98606.85
2022-09-15T06:45:42.090Z,98606.24
2022-09-15T06:46:45.416Z,98598.96
2022-09-15T06:48:07.405Z,98598.45
2022-09-15T06:48:55.181Z,98585.16
2022-09-15T06:49:57.163Z,98592.05
2022-09-15T06:51:00.181Z,98583.42
2022-09-15T06:52:02.265Z,98588.98
2022-09-15T06:53:04.813Z,98584.13
2022-09-15T06:54:06.716Z,98582.80
2022-09-15T06:55:08.823Z,98584.40
2022-09-15T06:56:13.693Z,98580.55
2022-09-15T06:57:15.548Z,98579.91
2022-09-15T06:58:17.287Z,98576.98
2022-09-15T06:59:19.035Z,98580.17
2022-09-15T07:00:23.096Z,98581.70
2022-09-15T07:01:30.174Z,98582.22
2022-09-15T07:02:32.400Z,98591.03
2022-09-15T07:03:34.884Z,98583.31
2022-09-15T07:04:37.617Z,98587.08
2022-09-15T07:05:39.578Z,98578.13
2022-09-15T07:06:42.133Z,98583.95
2022-09-15T07:07:44.054Z,98585.91
2022-09-15T07:08:46.586Z,98586.05
2022-09-15T07:09:49.260Z,98583.56
2022-09-15T07:10:51.573Z,98589.48
2022-09-15T07:11:53.366Z,98594.20
2022-09-15T07:12:55.489Z,98589.24
2022-09-15T07:13:58.290Z,98589.95
2022-09-15T07:15:00.268Z,98586.29
2022-09-15T07:16:04.856Z,98588.45
2022-09-15T07:17:06.872Z,98575.34
2022-09-15T07:18:08.725Z,98575.34
2022-09-15T07:19:11.847Z,98595.45
2022-09-15T07:20:14.704Z,98589.09
2022-09-15T07:21:19.463Z,98594.59
2022-09-15T07:22:22.343Z,98599.78
2022-09-15T07:23:24.329Z,98594.54
2022-09-15T07:24:26.208Z,98595.63
2022-09-15T07:25:29.088Z,98598.87
2022-09-15T07:26:31.872Z,98598.87
2022-09-15T07:27:33.795Z,98604.30
2022-09-15T07:28:36.432Z,98603.31
2022-09-15T07:29:38.268Z,98609.80
2022-09-15T07:30:40.963Z,98607.03
2022-09-15T07:31:43.088Z,98594.77
2022-09-15T07:32:45.016Z,98594.77
2022-09-15T07:33:47.760Z,98593.36
2022-09-15T07:34:49.621Z,98591.26
2022-09-15T07:35:52.191Z,98595.98
2022-09-15T07:36:54.075Z,98589.71
2022-09-15T07:37:56.483Z,98592.27
2022-09-15T07:38:58.379Z,98594.11
2022-09-15T07:40:00.804Z,98597.55
2022-09-15T07:41:12.408Z,98593.03
2022-09-15T07:42:15.552Z,98594.41
2022-09-15T07:43:17.669Z,98598.16
2022-09-15T07:44:19.480Z,98594.83
2022-09-15T07:45:21.377Z,98595.09
2022-09-15T07:46:25.340Z,98591.20
2022-09-15T07:47:27.257Z,98591.98
2022-09-15T07:48:30.024Z,98589.36
2022-09-15T07:49:31.818Z,98587.97
2022-09-15T07:50:34.782Z,98589.50
2022-09-15T07:51:36.649Z,98586.34
2022-09-15T07:52:38.564Z,98578.39
2022-09-15T07:53:40.955Z,98585.73
2022-09-15T07:54:42.904Z,98582.17
2022-09-15T07:55:44.677Z,98583.40
2022-09-15T07:56:46.680Z,98587.95
2022-09-15T07:57:58.163Z,98583.80
2022-09-15T07:59:00.632Z,98578.04
2022-09-15T08:00:04.560Z,98582.58
2022-09-15T08:01:09.576Z,98578.17
2022-09-15T08:02:15.657Z,98574.47
2022-09-15T08:03:20.084Z,98574.47
2022-09-15T08:04:22.059Z,98575.83
2022-09-15T08:05:25.248Z,98583.70
2022-09-15T08:06:29.541Z,98576.07
2022-09-15T08:07:31.644Z,98576.09
2022-09-15T08:08:34.718Z,98573.05
2022-09-15T08:09:37.158Z,98574.85
2022-09-15T08:10:41.160Z,98574.71
2022-09-15T08:11:43.679Z,98574.15
2022-09-15T08:12:45.752Z,98571.54
2022-09-15T08:13:49.343Z,98563.41
2022-09-15T08:14:52.256Z,98566.44
2022-09-15T08:15:54.244Z,98568.66
2022-09-15T08:16:56.839Z,98569.48
2022-09-15T08:17:58.830Z,98571.15
2022-09-15T08:19:01.134Z,98570.60
2022-09-15T08:20:04.081Z,98566.17
2022-09-15T08:21:08.679Z,98565.91
2022-09-15T08:22:10.673Z,98569.79
2022-09-15T08:23:12.616Z,98571.56
2022-09-15T08:24:14.589Z,98566.46
2022-09-15T08:25:16.537Z,98570.34
2022-09-15T08:26:19.654Z,98567.57
2022-09-15T08:27:22.929Z,98563.28
2022-09-15T08:28:25.577Z,98559.84
2022-09-15T08:29:27.336Z,98554.84
2022-09-15T08:30:30.503Z,98559.55
2022-09-15T08:31:32.574Z,98565.91
2022-09-15T08:32:34.688Z,98556.77
2022-09-15T08:33:39.838Z,98558.58
2022-09-15T08:34:41.376Z,98560.91
2022-09-15T08:35:43.700Z,98557.06
2022-09-15T08:36:46.213Z,98553.73
2022-09-15T08:37:48.214Z,98557.62
2022-09-15T08:38:50.030Z,98561.20
2022-09-15T08:39:52.093Z,98552.78
2022-09-15T08:41:00.916Z,98552.08
2022-09-15T08:42:04.927Z,98555.41
2022-09-15T08:43:10.522Z,98553.73
2022-09-15T08:44:24.875Z,98546.01
2022-09-15T08:45:30.421Z,98549.05
2022-09-15T08:46:41.013Z,98547.12
2022-09-15T08:47:46.847Z,98560.25
2022-09-15T08:48:52.558Z,98557.06
2022-09-15T08:50:27.369Z,98552.92
2022-09-15T08:51:36.629Z,98550.84
2022-09-15T08:52:59.503Z,98558.17
2022-09-15T08:54:05.207Z,98548.78
2022-09-15T08:55:20.580Z,98551.27
2022-09-15T08:56:23.849Z,98557.88
2022-09-15T08:57:25.997Z,98564.95
2022-09-15T08:58:34.528Z,98557.33
2022-09-15T08:59:37.746Z,98553.19
2022-09-15T09:00:41.878Z,98557.47
2022-09-15T09:02:14.733Z,98553.48
2022-09-15T09:03:29.329Z,98554.29
2022-09-15T09:04:44.249Z,98555.69
2022-09-15T09:06:12.687Z,98550.97
2022-09-15T09:07:38.748Z,98553.89
2022-09-15T09:08:47.976Z,98556.77
2022-09-15T09:10:08.773Z,98553.48
2022-09-15T09:11:20.398Z,98554.03
2022-09-15T09:12:55.209Z,98547.12
2022-09-15T09:14:17.305Z,98548.47
2022-09-15T09:15:41.882Z,98543.67
2022-09-15T09:16:55.351Z,98543.52
2022-09-15T09:18:07.850Z,98544.09
2022-09-15T09:19:28.970Z,98542.42
2022-09-15T09:20:50.192Z,98538.83
2022-09-15T09:21:58.852Z,98544.36
2022-09-15T09:23:04.506Z,98534.67
2022-09-15T09:24:15.801Z,98532.71
2022-09-15T09:25:27.353Z,98535.77
2022-09-15T09:26:25.096Z,98539.52
2022-09-15T09:27:31.107Z,98533.54
2022-09-15T09:31:12.345Z,98536.41
2022-09-15T09:32:21.506Z,98539.59
2022-09-15T09:33:48.108Z,98534.84
2022-09-15T09:35:22.088Z,98538.16
2022-09-15T09:36:26.443Z,98536.27
2022-09-15T09:37:29.058Z,98533.21
2022-09-15T09:38:40.414Z,98533.48
2022-09-15T09:39:42.365Z,98539.25
2022-09-15T09:40:45.015Z,98538.89
2022-09-15T09:41:47.324Z,98537.63
2022-09-15T09:42:49.806Z,98532.33
2022-09-15T09:43:55.417Z,98533.45
2022-09-15T09:45:00.354Z,98530.58
2022-09-15T09:46:02.364Z,98531.94
2022-09-15T09:47:05.467Z,98533.63
2022-09-15T09:48:23.368Z,98536.84
2022-09-15T09:49:30.052Z,98526.74
2022-09-15T09:50:35.879Z,98530.73
2022-09-15T09:51:40.747Z,98528.26
2022-09-15T09:52:42.595Z,98525.47
2022-09-15T09:53:48.066Z,98532.52
2022-09-15T09:54:54.168Z,98533.17
2022-09-15T09:56:15.123Z,98524.44
2022-09-15T09:57:23.356Z,98530.66
2022-09-15T09:58:25.393Z,98535.88
2022-09-15T09:59:34.244Z,98534.39
2022-09-15T10:00:38.874Z,98536.37
2022-09-15T10:01:40.895Z,98539.08
2022-09-15T10:02:46.546Z,98537.27
2022-09-15T10:03:48.729Z,98532.91
2022-09-15T10:04:55.148Z,98543.38
2022-09-15T10:06:13.783Z,98543.09
2022-09-15T10:07:19.934Z,98544.53
2022-09-15T10:08:22.194Z,98545.86
2022-09-15T10:09:24.732Z,98554.50
2022-09-15T10:10:28.719Z,98554.33
2022-09-15T10:11:49.229Z,98545.38
2022-09-15T10:12:57.250Z,98549.69
2022-09-15T10:14:00.231Z,98550.92
2022-09-15T10:15:06.101Z,98556.34
2022-09-15T10:16:09.668Z,98551.66
2022-09-15T10:17:18.089Z,98552.32
2022-09-15T10:18:29.303Z,98559.63
2022-09-15T10:19:34.966Z,98564.03
2022-09-15T10:20:46.397Z,98563.81
2022-09-15T10:21:50.015Z,98558.77
2022-09-15T10:23:08.172Z,98563.45
2022-09-15T10:24:30.719Z,98555.84
2022-09-15T10:25:57.697Z,98554.95
2022-09-15T10:26:42.812Z,98548.48
2022-09-15T10:27:46.930Z,98555.53
2022-09-15T10:29:18.310Z,98555.37
2022-09-15T10:30:21.743Z,98553.78
2022-09-15T10:31:29.202Z,98548.40
2022-09-15T10:32:31.317Z,98550.49
2022-09-15T10:33:38.745Z,98548.29
2022-09-15T10:34:41.077Z,98543.81
2022-09-15T10:35:43.282Z,98547.95
2022-09-15T10:36:46.568Z,98528.49
2022-09-15T10:38:10.218Z,98528.49
2022-09-15T10:39:31.503Z,98546.17
2022-09-15T10:40:49.643Z,98553.31
2022-09-15T10:41:59.176Z,98541.78
2022-09-15T10:43:29.403Z,98555.09
2022-09-15T10:44:53.438Z,98545.91
2022-09-15T10:46:08.404Z,98550.68
2022-09-15T10:47:35.162Z,98546.88
2022-09-15T10:48:49.445Z,98545.97
2022-09-15T10:50:15.179Z,98534.02
2022-09-15T10:51:39.150Z,98543.34
2022-09-15T10:53:03.121Z,98535.42
2022-09-15T10:54:20.952Z,98530.52
2022-09-15T10:55:53.069Z,98527.98
2022-09-15T10:56:54.469Z,98523.19
2022-09-15T10:58:03.025Z,98530.53
2022-09-15T10:59:31.299Z,98525.55
2022-09-15T11:00:37.160Z,98525.55
2022-09-15T11:02:09.709Z,98526.07
2022-09-15T11:03:18.792Z,98527.61
2022-09-15T11:04:47.721Z,98525.66
2022-09-15T11:06:02.385Z,98524.77
2022-09-15T11:07:20.349Z,98521.41
2022-09-15T11:08:33.373Z,98521.83
2022-09-15T11:09:54.055Z,98515.98
2022-09-15T11:11:05.810Z,98527.32
2022-09-15T11:12:14.185Z,98527.09
2022-09-15T11:13:29.268Z,98524.52
2022-09-15T11:14:44.181Z,98520.12
2022-09-15T11:16:07.988Z,98529.17
2022-09-15T11:17:26.446Z,98532.37
2022-09-15T11:18:49.478Z,98521.80
2022-09-15T11:20:13.802Z,98531.09
2022-09-15T11:21:30.960Z,98522.11
2022-09-15T11:22:37.137Z,98513.73
2022-09-15T11:24:04.148Z,98517.53
2022-09-15T11:25:18.703Z,98510.18
2022-09-15T11:26:38.276Z,98510.86
2022-09-15T11:27:43.865Z,98509.44
2022-09-15T11:28:55.642Z,98509.05
2022-09-15T11:30:22.850Z,98506.81
2022-09-15T11:31:28.495Z,98507.70
2022-09-15T11:32:40.439Z,98506.81
2022-09-15T11:33:58.602Z,98510.20
2022-09-15T11:35:26.774Z,98511.34
2022-09-15T11:36:45.619Z,98505.88
2022-09-15T11:37:50.983Z,98502.52
2022-09-15T11:39:08.534Z,98499.95
2022-09-15T11:40:29.032Z,98496.77
2022-09-15T11:41:48.098Z,98491.05
2022-09-15T11:44:17.243Z,98486.16
2022-09-15T11:45:23.435Z,98488.08
2022-09-15T11:46:37.374Z,98494.20
2022-09-15T11:47:46.424Z,98488.61
2022-09-15T11:48:55.541Z,98492.59
2022-09-15T11:50:07.179Z,98489.42
2022-09-15T11:51:12.780Z,98492.23
2022-09-15T11:52:33.667Z,98494.75
2022-09-15T11:53:42.668Z,98499.72
2022-09-15T11:54:48.103Z,98486.70
2022-09-15T11:55:56.976Z,98489.01
2022-09-15T11:57:00.271Z,98490.63
2022-09-15T11:58:25.997Z,98481.88
2022-09-15T11:59:33.808Z,98488.01
2022-09-15T12:00:39.500Z,98480.69
2022-09-15T12:02:00.639Z,98473.59
2022-09-15T12:03:22.910Z,98474.06
2022-09-15T12:04:32.212Z,98479.01
2022-09-15T12:05:38.244Z,98476.40
2022-09-15T12:07:03.926Z,98473.78
2022-09-15T12:08:15.538Z,98475.25
2022-09-15T12:09:20.665Z,98479.28
2022-09-15T12:10:33.050Z,98478.36
2022-09-15T12:11:38.189Z,98477.55
2022-09-15T12:12:45.414Z,98477.41
2022-09-15T12:13:49.594Z,98469.16
2022-09-15T12:14:52.466Z,98468.38
2022-09-15T12:15:55.534Z,98468.38
2022-09-15T12:16:59.945Z,98462.58
2022-09-15T12:18:37.175Z,98460.95
2022-09-15T12:19:35.565Z,98464.59
2022-09-15T12:20:42.970Z,98465.23
2022-09-15T12:21:52.395Z,98460.13
2022-09-15T12:23:03.918Z,98456.33
2022-09-15T12:24:21.435Z,98461.94
2022-09-15T12:25:35.304Z,98465.56
2022-09-15T12:26:38.160Z,98463.27
2022-09-15T12:27:40.152Z,98456.68
2022-09-15T12:29:00.221Z,98456.83
2022-09-15T12:30:03.439Z,98459.81
2022-09-15T12:32:33.414Z,98451.64
2022-09-15T12:33:55.583Z,98450.67
2022-09-15T12:35:04.151Z,98452.19
2022-09-15T12:36:42.048Z,98452.01
2022-09-15T12:37:58.339Z,98448.88
2022-09-15T12:39:04.139Z,98453.01
2022-09-15T12:40:28.917Z,98449.70
2022-09-15T12:41:32.317Z,98451.69
2022-09-15T12:42:36.894Z,98460.63
2022-09-15T12:43:39.394Z,98464.26
2022-09-15T12:44:48.018Z,98464.75
2022-09-15T12:45:59.199Z,98464.92
2022-09-15T12:47:05.961Z,98463.25
2022-09-15T12:48:17.417Z,98466.88
2022-09-15T12:49:23.011Z,98467.23
2022-09-15T12:50:28.752Z,98464.88
2022-09-15T12:51:30.794Z,98470.51
2022-09-15T12:52:42.309Z,98465.17
2022-09-15T12:53:52.147Z,98475.72
2022-09-15T12:54:57.977Z,98469.67
2022-09-15T12:56:05.872Z,98472.91
2022-09-15T12:57:21.300Z,98468.90
2022-09-15T12:58:41.894Z,98465.81
2022-09-15T12:59:43.951Z,98459.52
2022-09-15T13:01:13.931Z,98463.75
2022-09-15T13:01:52.058Z,98448.83
2022-09-15T13:02:55.146Z,98448.83
2022-09-15T13:04:02.020Z,98458.66
2022-09-15T13:05:04.583Z,98459.98
2022-09-15T13:06:19.309Z,98452.77
2022-09-15T13:07:24.048Z,98453.68
2022-09-15T13:08:32.432Z,98450.98
2022-09-15T13:09:47.266Z,98450.69
2022-09-15T13:11:01.993Z,98454.30
2022-09-15T13:12:07.110Z,98449.84